sensor_id;sensor_type;location;lat;lon;timestamp;P1;durP1;ratioP1;P2;durP2;ratioP2
72115;SDS011;59991;52.140;5.428;2023-05-10T00:00:18;18.13;;;13.63;;
72115;SDS011;59991;52.140;5.428;2023-05-10T00:00:50;19.17;;;14.90;;
72115;SDS011;59991;52.140;5.428;2023-05-10T00:01:21;15.75;;;13.98;;
72115;SDS011;59991;52.140;5.428;2023-05-10T00:01:53;17.50;;;14.70;;
72115;SDS011;59991;52.140;5.428;2023-05-10T00:02:25;16.20;;;14.02;;
72115;SDS011;59991;52.140;5.428;2023-05-10T00:02:57;20.50;;;15.52;;
72115;SDS011;59991;52.140;5.428;2023-05-10T00:03:29;20.60;;;15.63;;
72115;SDS011;59991;52.140;5.428;2023-05-10T00:04:01;21.63;;;15.60;;
72115;SDS011;59991;52.140;5.428;2023-05-10T00:04:32;19.20;;;14.50;;
72115;SDS011;59991;52.140;5.428;2023-05-10T00:05:04;18.55;;;14.85;;
72115;SDS011;59991;52.140;5.428;2023-05-10T00:05:36;22.00;;;14.57;;
72115;SDS011;59991;52.140;5.428;2023-05-10T00:06:07;21.02;;;16.30;;
72115;SDS011;59991;52.140;5.428;2023-05-10T00:06:39;17.55;;;14.50;;
72115;SDS011;59991;52.140;5.428;2023-05-10T00:07:10;18.43;;;14.50;;
72115;SDS011;59991;52.140;5.428;2023-05-10T00:07:41;17.50;;;14.18;;
72115;SDS011;59991;52.140;5.428;2023-05-10T00:08:16;21.08;;;15.30;;
72115;SDS011;59991;52.140;5.428;2023-05-10T00:08:47;17.60;;;14.32;;
72115;SDS011;59991;52.140;5.428;2023-05-10T00:09:18;18.13;;;15.38;;
72115;SDS011;59991;52.140;5.428;2023-05-10T00:09:50;18.55;;;15.18;;
72115;SDS011;59991;52.140;5.428;2023-05-10T00:10:21;20.20;;;15.60;;
72115;SDS011;59991;52.140;5.428;2023-05-10T00:10:53;21.92;;;15.65;;
72115;SDS011;59991;52.140;5.428;2023-05-10T00:11:24;19.42;;;15.85;;
72115;SDS011;59991;52.140;5.428;2023-05-10T00:11:56;16.90;;;14.52;;
72115;SDS011;59991;52.140;5.428;2023-05-10T00:12:29;18.10;;;14.77;;
72115;SDS011;59991;52.140;5.428;2023-05-10T00:13:01;18.75;;;15.23;;
72115;SDS011;59991;52.140;5.428;2023-05-10T00:13:32;20.55;;;14.85;;
72115;SDS011;59991;52.140;5.428;2023-05-10T00:14:04;16.05;;;13.80;;
72115;SDS011;59991;52.140;5.428;2023-05-10T00:14:35;19.58;;;15.43;;
72115;SDS011;59991;52.140;5.428;2023-05-10T00:15:07;18.48;;;15.18;;
72115;SDS011;59991;52.140;5.428;2023-05-10T00:15:39;19.88;;;15.88;;
72115;SDS011;59991;52.140;5.428;2023-05-10T00:16:11;19.08;;;15.75;;
72115;SDS011;59991;52.140;5.428;2023-05-10T00:16:44;20.05;;;15.45;;
72115;SDS011;59991;52.140;5.428;2023-05-10T00:17:16;18.33;;;15.48;;
72115;SDS011;59991;52.140;5.428;2023-05-10T00:17:47;22.93;;;16.67;;
72115;SDS011;59991;52.140;5.428;2023-05-10T00:18:19;19.33;;;14.88;;
72115;SDS011;59991;52.140;5.428;2023-05-10T00:18:51;18.63;;;14.88;;
72115;SDS011;59991;52.140;5.428;2023-05-10T00:19:22;18.55;;;15.43;;
72115;SDS011;59991;52.140;5.428;2023-05-10T00:19:54;19.20;;;15.63;;
72115;SDS011;59991;52.140;5.428;2023-05-10T00:20:25;18.10;;;14.63;;
72115;SDS011;59991;52.140;5.428;2023-05-10T00:20:57;19.40;;;14.55;;
72115;SDS011;59991;52.140;5.428;2023-05-10T00:21:28;18.48;;;14.80;;
72115;SDS011;59991;52.140;5.428;2023-05-10T00:21:59;19.77;;;15.85;;
72115;SDS011;59991;52.140;5.428;2023-05-10T00:22:31;18.45;;;15.18;;
72115;SDS011;59991;52.140;5.428;2023-05-10T00:23:03;21.00;;;16.40;;
72115;SDS011;59991;52.140;5.428;2023-05-10T00:23:34;24.33;;;15.95;;
72115;SDS011;59991;52.140;5.428;2023-05-10T00:24:06;22.92;;;16.10;;
72115;SDS011;59991;52.140;5.428;2023-05-10T00:24:37;19.77;;;15.85;;
72115;SDS011;59991;52.140;5.428;2023-05-10T00:25:09;21.75;;;16.08;;
72115;SDS011;59991;52.140;5.428;2023-05-10T00:25:41;19.80;;;15.93;;
72115;SDS011;59991;52.140;5.428;2023-05-10T00:26:13;23.13;;;17.70;;
72115;SDS011;59991;52.140;5.428;2023-05-10T00:26:44;21.65;;;17.02;;
72115;SDS011;59991;52.140;5.428;2023-05-10T00:27:16;23.40;;;16.65;;
72115;SDS011;59991;52.140;5.428;2023-05-10T00:27:47;21.35;;;15.50;;
72115;SDS011;59991;52.140;5.428;2023-05-10T00:28:19;23.70;;;16.77;;
72115;SDS011;59991;52.140;5.428;2023-05-10T00:28:50;21.27;;;16.65;;
72115;SDS011;59991;52.140;5.428;2023-05-10T00:29:21;22.00;;;17.30;;
72115;SDS011;59991;52.140;5.428;2023-05-10T00:29:53;24.60;;;16.92;;
72115;SDS011;59991;52.140;5.428;2023-05-10T00:30:24;23.13;;;16.67;;
72115;SDS011;59991;52.140;5.428;2023-05-10T00:30:56;23.52;;;17.70;;
72115;SDS011;59991;52.140;5.428;2023-05-10T00:31:27;24.52;;;18.40;;
72115;SDS011;59991;52.140;5.428;2023-05-10T00:31:59;24.23;;;19.00;;
72115;SDS011;59991;52.140;5.428;2023-05-10T00:32:30;27.05;;;18.92;;
72115;SDS011;59991;52.140;5.428;2023-05-10T00:33:02;28.90;;;18.20;;
72115;SDS011;59991;52.140;5.428;2023-05-10T00:33:34;26.40;;;18.30;;
72115;SDS011;59991;52.140;5.428;2023-05-10T00:34:05;27.10;;;19.95;;
72115;SDS011;59991;52.140;5.428;2023-05-10T00:34:36;30.08;;;19.75;;
72115;SDS011;59991;52.140;5.428;2023-05-10T00:35:08;28.35;;;19.92;;
72115;SDS011;59991;52.140;5.428;2023-05-10T00:35:39;30.52;;;20.58;;
72115;SDS011;59991;52.140;5.428;2023-05-10T00:36:11;28.27;;;20.05;;
72115;SDS011;59991;52.140;5.428;2023-05-10T00:36:43;31.85;;;21.25;;
72115;SDS011;59991;52.140;5.428;2023-05-10T00:37:14;32.53;;;21.55;;
72115;SDS011;59991;52.140;5.428;2023-05-10T00:37:46;33.45;;;22.38;;
72115;SDS011;59991;52.140;5.428;2023-05-10T00:38:17;30.17;;;21.83;;
72115;SDS011;59991;52.140;5.428;2023-05-10T00:38:49;31.00;;;20.40;;
72115;SDS011;59991;52.140;5.428;2023-05-10T00:39:21;33.10;;;21.92;;
72115;SDS011;59991;52.140;5.428;2023-05-10T00:39:52;31.95;;;21.63;;
72115;SDS011;59991;52.140;5.428;2023-05-10T00:40:24;33.58;;;22.50;;
72115;SDS011;59991;52.140;5.428;2023-05-10T00:40:56;31.73;;;22.63;;
72115;SDS011;59991;52.140;5.428;2023-05-10T00:41:27;35.22;;;22.05;;
72115;SDS011;59991;52.140;5.428;2023-05-10T00:41:59;32.72;;;22.42;;
72115;SDS011;59991;52.140;5.428;2023-05-10T00:42:31;32.90;;;23.55;;
72115;SDS011;59991;52.140;5.428;2023-05-10T00:43:02;34.58;;;23.88;;
72115;SDS011;59991;52.140;5.428;2023-05-10T00:43:34;35.83;;;22.95;;
72115;SDS011;59991;52.140;5.428;2023-05-10T00:44:05;36.53;;;24.33;;
72115;SDS011;59991;52.140;5.428;2023-05-10T00:44:37;37.60;;;23.90;;
72115;SDS011;59991;52.140;5.428;2023-05-10T00:45:09;38.45;;;25.20;;
72115;SDS011;59991;52.140;5.428;2023-05-10T00:45:40;42.30;;;25.95;;
72115;SDS011;59991;52.140;5.428;2023-05-10T00:46:13;38.13;;;24.80;;
72115;SDS011;59991;52.140;5.428;2023-05-10T00:46:46;39.58;;;24.80;;
72115;SDS011;59991;52.140;5.428;2023-05-10T00:47:19;38.40;;;25.05;;
72115;SDS011;59991;52.140;5.428;2023-05-10T00:47:51;36.65;;;25.45;;
72115;SDS011;59991;52.140;5.428;2023-05-10T00:48:26;36.42;;;24.52;;
72115;SDS011;59991;52.140;5.428;2023-05-10T00:48:57;38.92;;;24.42;;
72115;SDS011;59991;52.140;5.428;2023-05-10T00:49:29;36.87;;;24.53;;
72115;SDS011;59991;52.140;5.428;2023-05-10T00:50:01;36.22;;;24.02;;
72115;SDS011;59991;52.140;5.428;2023-05-10T00:50:33;44.85;;;25.23;;
72115;SDS011;59991;52.140;5.428;2023-05-10T00:51:05;36.25;;;24.27;;
72115;SDS011;59991;52.140;5.428;2023-05-10T00:51:37;38.40;;;23.92;;
72115;SDS011;59991;52.140;5.428;2023-05-10T00:52:08;39.58;;;25.02;;
72115;SDS011;59991;52.140;5.428;2023-05-10T00:52:41;43.33;;;25.15;;
72115;SDS011;59991;52.140;5.428;2023-05-10T00:53:14;42.00;;;26.33;;
72115;SDS011;59991;52.140;5.428;2023-05-10T00:53:46;39.33;;;25.63;;
72115;SDS011;59991;52.140;5.428;2023-05-10T00:54:18;42.67;;;26.08;;
72115;SDS011;59991;52.140;5.428;2023-05-10T00:54:50;40.60;;;25.90;;
72115;SDS011;59991;52.140;5.428;2023-05-10T00:55:23;42.22;;;26.23;;
72115;SDS011;59991;52.140;5.428;2023-05-10T00:55:55;40.72;;;25.25;;
72115;SDS011;59991;52.140;5.428;2023-05-10T00:56:26;39.58;;;25.52;;
72115;SDS011;59991;52.140;5.428;2023-05-10T00:56:59;42.08;;;26.60;;
72115;SDS011;59991;52.140;5.428;2023-05-10T00:57:30;40.60;;;26.05;;
72115;SDS011;59991;52.140;5.428;2023-05-10T00:58:03;37.58;;;25.38;;
72115;SDS011;59991;52.140;5.428;2023-05-10T00:58:36;42.53;;;26.33;;
72115;SDS011;59991;52.140;5.428;2023-05-10T00:59:08;39.47;;;26.05;;
72115;SDS011;59991;52.140;5.428;2023-05-10T00:59:40;43.88;;;27.00;;
72115;SDS011;59991;52.140;5.428;2023-05-10T01:00:12;38.63;;;25.20;;
72115;SDS011;59991;52.140;5.428;2023-05-10T01:00:49;43.50;;;25.30;;
72115;SDS011;59991;52.140;5.428;2023-05-10T01:01:21;41.65;;;26.27;;
72115;SDS011;59991;52.140;5.428;2023-05-10T01:01:53;44.58;;;26.90;;
72115;SDS011;59991;52.140;5.428;2023-05-10T01:02:25;43.47;;;26.85;;
72115;SDS011;59991;52.140;5.428;2023-05-10T01:02:56;41.95;;;26.42;;
72115;SDS011;59991;52.140;5.428;2023-05-10T01:03:29;46.17;;;27.95;;
72115;SDS011;59991;52.140;5.428;2023-05-10T01:04:00;45.95;;;28.08;;
72115;SDS011;59991;52.140;5.428;2023-05-10T01:04:34;42.05;;;25.73;;
72115;SDS011;59991;52.140;5.428;2023-05-10T01:05:06;47.97;;;27.67;;
72115;SDS011;59991;52.140;5.428;2023-05-10T01:05:38;49.40;;;29.53;;
72115;SDS011;59991;52.140;5.428;2023-05-10T01:06:09;47.45;;;27.95;;
72115;SDS011;59991;52.140;5.428;2023-05-10T01:06:41;45.33;;;28.67;;
72115;SDS011;59991;52.140;5.428;2023-05-10T01:07:13;47.58;;;29.95;;
72115;SDS011;59991;52.140;5.428;2023-05-10T01:07:44;48.53;;;29.50;;
72115;SDS011;59991;52.140;5.428;2023-05-10T01:08:15;49.92;;;28.48;;
72115;SDS011;59991;52.140;5.428;2023-05-10T01:08:47;48.58;;;29.58;;
72115;SDS011;59991;52.140;5.428;2023-05-10T01:09:19;49.63;;;29.88;;
72115;SDS011;59991;52.140;5.428;2023-05-10T01:09:51;47.00;;;28.27;;
72115;SDS011;59991;52.140;5.428;2023-05-10T01:10:22;45.33;;;28.77;;
72115;SDS011;59991;52.140;5.428;2023-05-10T01:10:54;47.00;;;28.67;;
72115;SDS011;59991;52.140;5.428;2023-05-10T01:11:26;47.65;;;29.33;;
72115;SDS011;59991;52.140;5.428;2023-05-10T01:11:59;47.83;;;28.77;;
72115;SDS011;59991;52.140;5.428;2023-05-10T01:12:36;47.40;;;28.23;;
72115;SDS011;59991;52.140;5.428;2023-05-10T01:13:11;47.85;;;28.60;;
72115;SDS011;59991;52.140;5.428;2023-05-10T01:13:53;49.58;;;29.63;;
72115;SDS011;59991;52.140;5.428;2023-05-10T01:14:27;45.80;;;27.52;;
72115;SDS011;59991;52.140;5.428;2023-05-10T01:15:00;44.03;;;27.15;;
72115;SDS011;59991;52.140;5.428;2023-05-10T01:15:32;53.92;;;29.63;;
72115;SDS011;59991;52.140;5.428;2023-05-10T01:16:05;47.45;;;28.35;;
72115;SDS011;59991;52.140;5.428;2023-05-10T01:16:38;48.73;;;28.70;;
72115;SDS011;59991;52.140;5.428;2023-05-10T01:17:11;49.65;;;29.60;;
72115;SDS011;59991;52.140;5.428;2023-05-10T01:17:44;48.45;;;28.52;;
72115;SDS011;59991;52.140;5.428;2023-05-10T01:18:17;51.13;;;29.67;;
72115;SDS011;59991;52.140;5.428;2023-05-10T01:18:52;48.70;;;29.08;;
72115;SDS011;59991;52.140;5.428;2023-05-10T01:19:25;50.88;;;27.35;;
72115;SDS011;59991;52.140;5.428;2023-05-10T01:19:57;47.58;;;28.10;;
72115;SDS011;59991;52.140;5.428;2023-05-10T01:20:31;50.85;;;29.35;;
72115;SDS011;59991;52.140;5.428;2023-05-10T01:21:11;44.72;;;28.00;;
72115;SDS011;59991;52.140;5.428;2023-05-10T01:22:09;47.60;;;26.75;;
72115;SDS011;59991;52.140;5.428;2023-05-10T01:33:09;41.90;;;24.10;;
72115;SDS011;59991;52.140;5.428;2023-05-10T01:33:59;46.92;;;25.33;;
72115;SDS011;59991;52.140;5.428;2023-05-10T01:34:46;48.63;;;26.30;;
72115;SDS011;59991;52.140;5.428;2023-05-10T01:35:26;47.08;;;25.85;;
72115;SDS011;59991;52.140;5.428;2023-05-10T01:36:51;44.38;;;24.30;;
72115;SDS011;59991;52.140;5.428;2023-05-10T01:37:40;46.42;;;25.88;;
72115;SDS011;59991;52.140;5.428;2023-05-10T01:38:22;45.03;;;26.55;;
72115;SDS011;59991;52.140;5.428;2023-05-10T01:39:22;46.78;;;26.27;;
72115;SDS011;59991;52.140;5.428;2023-05-10T01:40:50;45.47;;;24.80;;
72115;SDS011;59991;52.140;5.428;2023-05-10T01:41:52;45.80;;;25.63;;
72115;SDS011;59991;52.140;5.428;2023-05-10T01:42:28;45.63;;;25.25;;
72115;SDS011;59991;52.140;5.428;2023-05-10T01:43:05;49.55;;;27.55;;
72115;SDS011;59991;52.140;5.428;2023-05-10T01:45:44;48.80;;;26.77;;
72115;SDS011;59991;52.140;5.428;2023-05-10T01:46:27;52.67;;;26.45;;
72115;SDS011;59991;52.140;5.428;2023-05-10T01:47:05;47.53;;;26.92;;
72115;SDS011;59991;52.140;5.428;2023-05-10T01:47:42;46.83;;;25.00;;
72115;SDS011;59991;52.140;5.428;2023-05-10T01:48:15;48.83;;;26.88;;
72115;SDS011;59991;52.140;5.428;2023-05-10T01:48:51;47.22;;;28.08;;
72115;SDS011;59991;52.140;5.428;2023-05-10T01:49:29;50.17;;;27.27;;
72115;SDS011;59991;52.140;5.428;2023-05-10T01:50:03;49.85;;;28.05;;
72115;SDS011;59991;52.140;5.428;2023-05-10T01:50:39;54.08;;;28.70;;
72115;SDS011;59991;52.140;5.428;2023-05-10T01:51:19;52.97;;;27.67;;
72115;SDS011;59991;52.140;5.428;2023-05-10T01:51:57;54.28;;;28.67;;
72115;SDS011;59991;52.140;5.428;2023-05-10T01:52:36;52.72;;;28.33;;
72115;SDS011;59991;52.140;5.428;2023-05-10T01:53:12;53.40;;;28.25;;
72115;SDS011;59991;52.140;5.428;2023-05-10T01:53:46;50.30;;;27.83;;
72115;SDS011;59991;52.140;5.428;2023-05-10T01:54:20;51.63;;;26.88;;
72115;SDS011;59991;52.140;5.428;2023-05-10T01:54:55;52.95;;;27.60;;
72115;SDS011;59991;52.140;5.428;2023-05-10T01:55:32;51.10;;;28.25;;
72115;SDS011;59991;52.140;5.428;2023-05-10T01:56:06;51.50;;;28.85;;
72115;SDS011;59991;52.140;5.428;2023-05-10T01:56:39;52.75;;;29.17;;
72115;SDS011;59991;52.140;5.428;2023-05-10T01:57:13;54.05;;;29.52;;
72115;SDS011;59991;52.140;5.428;2023-05-10T01:57:46;51.13;;;27.95;;
72115;SDS011;59991;52.140;5.428;2023-05-10T01:58:27;54.33;;;28.45;;
72115;SDS011;59991;52.140;5.428;2023-05-10T01:59:02;51.80;;;28.65;;
72115;SDS011;59991;52.140;5.428;2023-05-10T01:59:39;46.97;;;26.97;;
72115;SDS011;59991;52.140;5.428;2023-05-10T02:00:14;50.35;;;27.08;;
72115;SDS011;59991;52.140;5.428;2023-05-10T02:00:47;48.60;;;27.00;;
72115;SDS011;59991;52.140;5.428;2023-05-10T02:01:21;55.38;;;29.42;;
72115;SDS011;59991;52.140;5.428;2023-05-10T02:01:54;47.25;;;27.77;;
72115;SDS011;59991;52.140;5.428;2023-05-10T02:02:30;48.33;;;27.10;;
72115;SDS011;59991;52.140;5.428;2023-05-10T02:03:07;57.17;;;29.73;;
72115;SDS011;59991;52.140;5.428;2023-05-10T02:03:41;46.70;;;27.90;;
72115;SDS011;59991;52.140;5.428;2023-05-10T02:04:15;49.00;;;27.63;;
72115;SDS011;59991;52.140;5.428;2023-05-10T02:04:49;56.25;;;30.58;;
72115;SDS011;59991;52.140;5.428;2023-05-10T02:05:21;50.73;;;28.70;;
72115;SDS011;59991;52.140;5.428;2023-05-10T02:05:54;53.20;;;29.95;;
72115;SDS011;59991;52.140;5.428;2023-05-10T02:06:27;50.28;;;28.80;;
72115;SDS011;59991;52.140;5.428;2023-05-10T02:06:59;53.47;;;30.02;;
72115;SDS011;59991;52.140;5.428;2023-05-10T02:07:31;49.22;;;28.10;;
72115;SDS011;59991;52.140;5.428;2023-05-10T02:08:05;50.72;;;27.85;;
72115;SDS011;59991;52.140;5.428;2023-05-10T02:08:38;53.13;;;27.73;;
72115;SDS011;59991;52.140;5.428;2023-05-10T02:09:11;48.97;;;28.27;;
72115;SDS011;59991;52.140;5.428;2023-05-10T02:09:44;51.45;;;28.38;;
72115;SDS011;59991;52.140;5.428;2023-05-10T02:10:20;50.85;;;28.15;;
72115;SDS011;59991;52.140;5.428;2023-05-10T02:10:52;50.77;;;27.87;;
72115;SDS011;59991;52.140;5.428;2023-05-10T02:11:25;54.25;;;28.73;;
72115;SDS011;59991;52.140;5.428;2023-05-10T02:11:59;51.95;;;28.80;;
72115;SDS011;59991;52.140;5.428;2023-05-10T02:12:43;53.45;;;29.15;;
72115;SDS011;59991;52.140;5.428;2023-05-10T02:13:18;49.15;;;27.85;;
72115;SDS011;59991;52.140;5.428;2023-05-10T02:13:50;47.15;;;27.00;;
72115;SDS011;59991;52.140;5.428;2023-05-10T02:14:24;51.10;;;28.35;;
72115;SDS011;59991;52.140;5.428;2023-05-10T02:14:59;51.30;;;28.80;;
72115;SDS011;59991;52.140;5.428;2023-05-10T02:15:33;55.22;;;28.58;;
72115;SDS011;59991;52.140;5.428;2023-05-10T02:16:06;48.85;;;28.33;;
72115;SDS011;59991;52.140;5.428;2023-05-10T02:16:38;48.17;;;28.27;;
72115;SDS011;59991;52.140;5.428;2023-05-10T02:17:11;51.05;;;27.92;;
72115;SDS011;59991;52.140;5.428;2023-05-10T02:17:44;49.17;;;27.65;;
72115;SDS011;59991;52.140;5.428;2023-05-10T02:18:17;51.78;;;27.25;;
72115;SDS011;59991;52.140;5.428;2023-05-10T02:18:49;50.97;;;28.08;;
72115;SDS011;59991;52.140;5.428;2023-05-10T02:19:23;52.45;;;28.23;;
72115;SDS011;59991;52.140;5.428;2023-05-10T02:19:55;51.90;;;28.95;;
72115;SDS011;59991;52.140;5.428;2023-05-10T02:20:28;50.92;;;27.75;;
72115;SDS011;59991;52.140;5.428;2023-05-10T02:21:02;50.85;;;28.27;;
72115;SDS011;59991;52.140;5.428;2023-05-10T02:21:34;52.83;;;27.10;;
72115;SDS011;59991;52.140;5.428;2023-05-10T02:22:07;55.27;;;29.07;;
72115;SDS011;59991;52.140;5.428;2023-05-10T02:22:40;52.55;;;28.85;;
72115;SDS011;59991;52.140;5.428;2023-05-10T02:23:13;49.53;;;28.42;;
72115;SDS011;59991;52.140;5.428;2023-05-10T02:23:48;53.65;;;28.85;;
72115;SDS011;59991;52.140;5.428;2023-05-10T02:24:21;51.78;;;28.48;;
72115;SDS011;59991;52.140;5.428;2023-05-10T02:24:55;51.65;;;29.40;;
72115;SDS011;59991;52.140;5.428;2023-05-10T02:25:30;52.20;;;29.60;;
72115;SDS011;59991;52.140;5.428;2023-05-10T02:26:03;50.40;;;28.35;;
72115;SDS011;59991;52.140;5.428;2023-05-10T02:26:37;49.53;;;28.20;;
72115;SDS011;59991;52.140;5.428;2023-05-10T02:27:09;51.30;;;28.58;;
72115;SDS011;59991;52.140;5.428;2023-05-10T02:27:42;52.00;;;28.40;;
72115;SDS011;59991;52.140;5.428;2023-05-10T02:28:15;53.22;;;28.83;;
72115;SDS011;59991;52.140;5.428;2023-05-10T02:28:48;50.35;;;27.83;;
72115;SDS011;59991;52.140;5.428;2023-05-10T02:29:22;49.65;;;29.40;;
72115;SDS011;59991;52.140;5.428;2023-05-10T02:29:56;53.15;;;28.48;;
72115;SDS011;59991;52.140;5.428;2023-05-10T02:30:29;50.83;;;28.60;;
72115;SDS011;59991;52.140;5.428;2023-05-10T02:31:03;56.38;;;29.48;;
72115;SDS011;59991;52.140;5.428;2023-05-10T02:31:37;52.83;;;29.65;;
72115;SDS011;59991;52.140;5.428;2023-05-10T02:32:09;56.53;;;30.17;;
72115;SDS011;59991;52.140;5.428;2023-05-10T02:32:43;54.80;;;29.48;;
72115;SDS011;59991;52.140;5.428;2023-05-10T02:33:15;50.10;;;28.40;;
72115;SDS011;59991;52.140;5.428;2023-05-10T02:33:48;57.67;;;31.10;;
72115;SDS011;59991;52.140;5.428;2023-05-10T02:34:21;53.60;;;28.73;;
72115;SDS011;59991;52.140;5.428;2023-05-10T02:34:56;53.63;;;29.67;;
72115;SDS011;59991;52.140;5.428;2023-05-10T02:35:28;52.70;;;30.00;;
72115;SDS011;59991;52.140;5.428;2023-05-10T02:36:00;53.55;;;30.35;;
72115;SDS011;59991;52.140;5.428;2023-05-10T02:36:33;56.42;;;30.35;;
72115;SDS011;59991;52.140;5.428;2023-05-10T02:37:06;55.38;;;30.30;;
72115;SDS011;59991;52.140;5.428;2023-05-10T02:37:38;52.72;;;29.63;;
72115;SDS011;59991;52.140;5.428;2023-05-10T02:38:10;55.38;;;29.92;;
72115;SDS011;59991;52.140;5.428;2023-05-10T02:38:44;54.27;;;28.83;;
72115;SDS011;59991;52.140;5.428;2023-05-10T02:39:16;55.58;;;30.33;;
72115;SDS011;59991;52.140;5.428;2023-05-10T02:39:50;60.90;;;29.38;;
72115;SDS011;59991;52.140;5.428;2023-05-10T02:40:24;57.00;;;30.45;;
72115;SDS011;59991;52.140;5.428;2023-05-10T02:40:59;57.45;;;30.83;;
72115;SDS011;59991;52.140;5.428;2023-05-10T02:41:31;58.30;;;30.80;;
72115;SDS011;59991;52.140;5.428;2023-05-10T02:42:03;59.65;;;29.52;;
72115;SDS011;59991;52.140;5.428;2023-05-10T02:42:37;52.88;;;27.95;;
72115;SDS011;59991;52.140;5.428;2023-05-10T02:43:11;55.22;;;30.10;;
72115;SDS011;59991;52.140;5.428;2023-05-10T02:43:45;52.75;;;29.10;;
72115;SDS011;59991;52.140;5.428;2023-05-10T02:44:18;54.83;;;28.80;;
72115;SDS011;59991;52.140;5.428;2023-05-10T02:44:52;54.00;;;28.40;;
72115;SDS011;59991;52.140;5.428;2023-05-10T02:45:27;53.88;;;28.42;;
72115;SDS011;59991;52.140;5.428;2023-05-10T02:46:01;50.55;;;29.95;;
72115;SDS011;59991;52.140;5.428;2023-05-10T02:46:33;50.70;;;28.60;;
72115;SDS011;59991;52.140;5.428;2023-05-10T02:47:05;51.38;;;29.02;;
72115;SDS011;59991;52.140;5.428;2023-05-10T02:47:36;53.85;;;28.88;;
72115;SDS011;59991;52.140;5.428;2023-05-10T02:48:08;53.60;;;29.27;;
72115;SDS011;59991;52.140;5.428;2023-05-10T02:48:39;54.15;;;28.83;;
72115;SDS011;59991;52.140;5.428;2023-05-10T02:49:11;52.35;;;28.13;;
72115;SDS011;59991;52.140;5.428;2023-05-10T02:49:42;55.60;;;30.73;;
72115;SDS011;59991;52.140;5.428;2023-05-10T02:50:14;53.60;;;29.08;;
72115;SDS011;59991;52.140;5.428;2023-05-10T02:50:46;52.42;;;29.52;;
72115;SDS011;59991;52.140;5.428;2023-05-10T02:51:24;51.88;;;28.35;;
72115;SDS011;59991;52.140;5.428;2023-05-10T02:52:00;51.67;;;28.73;;
72115;SDS011;59991;52.140;5.428;2023-05-10T02:52:38;54.28;;;28.50;;
72115;SDS011;59991;52.140;5.428;2023-05-10T02:53:19;52.65;;;28.52;;
72115;SDS011;59991;52.140;5.428;2023-05-10T02:53:54;54.88;;;29.23;;
72115;SDS011;59991;52.140;5.428;2023-05-10T02:54:29;52.55;;;28.27;;
72115;SDS011;59991;52.140;5.428;2023-05-10T02:55:03;51.65;;;27.52;;
72115;SDS011;59991;52.140;5.428;2023-05-10T02:55:38;53.73;;;28.97;;
72115;SDS011;59991;52.140;5.428;2023-05-10T02:56:15;57.97;;;29.42;;
72115;SDS011;59991;52.140;5.428;2023-05-10T02:56:59;53.97;;;27.73;;
72115;SDS011;59991;52.140;5.428;2023-05-10T02:57:35;56.00;;;29.90;;
72115;SDS011;59991;52.140;5.428;2023-05-10T02:58:12;56.20;;;29.95;;
72115;SDS011;59991;52.140;5.428;2023-05-10T02:58:43;61.15;;;30.65;;
72115;SDS011;59991;52.140;5.428;2023-05-10T02:59:15;59.00;;;30.00;;
72115;SDS011;59991;52.140;5.428;2023-05-10T02:59:46;61.92;;;31.85;;
72115;SDS011;59991;52.140;5.428;2023-05-10T03:00:18;56.25;;;29.83;;
72115;SDS011;59991;52.140;5.428;2023-05-10T03:00:49;54.53;;;29.48;;
72115;SDS011;59991;52.140;5.428;2023-05-10T03:01:21;60.17;;;31.03;;
72115;SDS011;59991;52.140;5.428;2023-05-10T03:01:53;57.00;;;31.73;;
72115;SDS011;59991;52.140;5.428;2023-05-10T03:02:24;55.50;;;28.55;;
72115;SDS011;59991;52.140;5.428;2023-05-10T03:02:56;60.00;;;32.42;;
72115;SDS011;59991;52.140;5.428;2023-05-10T03:03:28;57.72;;;30.77;;
72115;SDS011;59991;52.140;5.428;2023-05-10T03:04:00;61.88;;;32.50;;
72115;SDS011;59991;52.140;5.428;2023-05-10T03:04:31;54.30;;;31.52;;
72115;SDS011;59991;52.140;5.428;2023-05-10T03:05:03;63.17;;;32.78;;
72115;SDS011;59991;52.140;5.428;2023-05-10T03:05:35;61.63;;;32.88;;
72115;SDS011;59991;52.140;5.428;2023-05-10T03:06:06;57.20;;;31.17;;
72115;SDS011;59991;52.140;5.428;2023-05-10T03:06:37;56.80;;;30.90;;
72115;SDS011;59991;52.140;5.428;2023-05-10T03:07:09;57.13;;;31.30;;
72115;SDS011;59991;52.140;5.428;2023-05-10T03:07:41;64.45;;;31.75;;
72115;SDS011;59991;52.140;5.428;2023-05-10T03:08:12;61.38;;;31.90;;
72115;SDS011;59991;52.140;5.428;2023-05-10T03:08:44;57.60;;;32.67;;
72115;SDS011;59991;52.140;5.428;2023-05-10T03:09:16;60.70;;;32.45;;
72115;SDS011;59991;52.140;5.428;2023-05-10T03:09:48;59.22;;;32.20;;
72115;SDS011;59991;52.140;5.428;2023-05-10T03:10:21;60.65;;;32.03;;
72115;SDS011;59991;52.140;5.428;2023-05-10T03:11:02;62.35;;;33.40;;
72115;SDS011;59991;52.140;5.428;2023-05-10T03:14:10;63.53;;;31.08;;
72115;SDS011;59991;52.140;5.428;2023-05-10T03:15:13;64.32;;;30.70;;
72115;SDS011;59991;52.140;5.428;2023-05-10T03:16:07;66.80;;;32.30;;
72115;SDS011;59991;52.140;5.428;2023-05-10T03:16:46;69.30;;;33.72;;
72115;SDS011;59991;52.140;5.428;2023-05-10T03:17:25;73.55;;;33.28;;
72115;SDS011;59991;52.140;5.428;2023-05-10T03:18:04;63.63;;;31.33;;
72115;SDS011;59991;52.140;5.428;2023-05-10T03:19:29;67.32;;;32.63;;
72115;SDS011;59991;52.140;5.428;2023-05-10T03:20:08;63.77;;;31.37;;
72115;SDS011;59991;52.140;5.428;2023-05-10T03:20:43;64.97;;;32.05;;
72115;SDS011;59991;52.140;5.428;2023-05-10T03:21:19;71.55;;;33.63;;
72115;SDS011;59991;52.140;5.428;2023-05-10T03:21:54;68.28;;;33.17;;
72115;SDS011;59991;52.140;5.428;2023-05-10T03:22:32;68.65;;;32.30;;
72115;SDS011;59991;52.140;5.428;2023-05-10T03:23:16;70.63;;;33.72;;
72115;SDS011;59991;52.140;5.428;2023-05-10T03:23:57;68.57;;;31.02;;
72115;SDS011;59991;52.140;5.428;2023-05-10T03:24:31;67.30;;;33.33;;
72115;SDS011;59991;52.140;5.428;2023-05-10T03:25:05;70.88;;;33.45;;
72115;SDS011;59991;52.140;5.428;2023-05-10T03:25:39;65.88;;;32.13;;
72115;SDS011;59991;52.140;5.428;2023-05-10T03:26:13;69.43;;;32.93;;
72115;SDS011;59991;52.140;5.428;2023-05-10T03:26:51;71.57;;;34.60;;
72115;SDS011;59991;52.140;5.428;2023-05-10T03:27:26;64.88;;;31.65;;
72115;SDS011;59991;52.140;5.428;2023-05-10T03:27:59;71.63;;;32.85;;
72115;SDS011;59991;52.140;5.428;2023-05-10T03:28:33;67.30;;;31.05;;
72115;SDS011;59991;52.140;5.428;2023-05-10T03:29:06;69.07;;;32.72;;
72115;SDS011;59991;52.140;5.428;2023-05-10T03:29:39;68.35;;;31.38;;
72115;SDS011;59991;52.140;5.428;2023-05-10T03:30:11;68.05;;;33.30;;
72115;SDS011;59991;52.140;5.428;2023-05-10T03:30:44;76.82;;;32.72;;
72115;SDS011;59991;52.140;5.428;2023-05-10T03:31:17;65.65;;;32.42;;
72115;SDS011;59991;52.140;5.428;2023-05-10T03:31:48;66.80;;;31.43;;
72115;SDS011;59991;52.140;5.428;2023-05-10T03:32:21;66.57;;;32.15;;
72115;SDS011;59991;52.140;5.428;2023-05-10T03:32:53;69.15;;;33.15;;
72115;SDS011;59991;52.140;5.428;2023-05-10T03:33:25;70.18;;;32.50;;
72115;SDS011;59991;52.140;5.428;2023-05-10T03:33:56;69.18;;;33.75;;
72115;SDS011;59991;52.140;5.428;2023-05-10T03:34:29;72.75;;;32.03;;
72115;SDS011;59991;52.140;5.428;2023-05-10T03:35:06;74.68;;;33.65;;